Time;durP1;ratioP1;P1;durP2;ratioP2;P2;SDS_P1;SDS_P2;PMS_P1;PMS_P2;Temp;Humidity;BMP_temperature;BMP_pressure;BME280_temperature;BME280_humidity;BME280_pressure;Samples;Min_cycle;Max_cycle;Signal;HPM_P1;HPM_P2
2023/06/30 00:01:13;;;;;;;;;9.50;9.00;;;;;22.16;71.83;100657.59;146613;653;45915;-69
2023/06/30 00:05:11;;;;;;;;;;;;;;;;;;;;;
2023/06/30 00:08:56;;;;;;;;;11.00;10.00;;;;;23.86;74.14;100942.63;146622;603;45915;-69
2023/06/30 00:12:39;;;;;;;;;;;;;;;;;;;;;
2023/06/30 00:15:54;;;;;;;;;10.50;9.25;;;;;23.76;74.61;100941.75;146621;661;45917;-66
2023/06/30 00:19:34;;;;;;;;;;;;;;;;;;;;;
2023/06/30 00:23:40;;;;;;;;;11.75;10.00;;;;;22.31;73.88;100696.38;146620;564;45913;-67
2023/06/30 00:27:26;;;;;;;;;11.00;11.00;;;;;23.69;74.11;100939.97;146609;566;45021;-66
2023/06/30 00:35:18;;;;;;;;;10.75;10.50;;;;;23.75;75.41;100937.34;146619;630;45020;-68
2023/06/30 00:39:12;;;;;;;;;9.67;9.67;;;;;23.71;75.82;100944.41;146616;698;45915;-66
2023/06/30 00:42:56;;;;;;;;;;;;;;;;;;;;;
2023/06/30 00:50:39;;;;;;;;;10.00;7.50;;;;;21.97;73.74;100637.25;146617;669;46008;-67
2023/06/30 00:54:07;;;;;;;;;11.75;10.00;;;;;23.73;74.55;100937.31;146619;570;45913;-67
2023/06/30 00:57:32;;;;;;;;;;;;;;;;;;;;;
2023/06/30 01:01:28;;;;;;;;;11.00;9.25;;;;;22.66;76.29;100765.16;146615;571;45911;-69
2023/06/30 01:05:11;;;;;;;;;11.33;10.33;;;;;23.55;75.58;100936.38;146611;618;45020;-69
2023/06/30 01:08:46;;;;;;;;;11.25;9.25;;;;;23.50;76.02;100934.63;146611;574;45909;-68
2023/06/30 01:12:15;;;;;;;;;11.00;8.75;;;;;23.48;75.67;100925.78;146626;582;45023;-66
2023/06/30 01:16:05;;;;;;;;;;;;;;;;;;;;;
2023/06/30 01:19:26;;;;;;;;;10.50;10.25;;;;;23.51;74.64;100925.78;146624;579;45023;-67
2023/06/30 01:23:33;;;;;;;;;;;;;;;;;;;;;
2023/06/30 01:27:25;;;;;;;;;;;;;;;;;;;;;
2023/06/30 01:31:05;;;;;;;;;;;;;;;;;;;;;
2023/06/30 01:34:58;;;;;;;;;9.50;9.50;;;;;22.83;72.59;100757.25;146625;618;45023;-67
2023/06/30 01:38:38;;;;;;;;;;;;;;;;;;;;;
2023/06/30 01:42:02;;;;;;;;;11.25;10.25;;;;;23.72;75.15;100921.44;146609;633;45020;-68
2023/06/30 01:45:57;;;;;;;;;10.50;10.50;;;;;22.55;74.58;100745.75;146613;662;45914;-67
2023/06/30 01:49:24;;;;;;;;;12.00;11.00;;;;;23.50;75.07;100928.44;146618;619;45020;-69
2023/06/30 01:52:41;;;;;;;;;10.50;9.00;;;;;23.48;76.60;100931.09;146615;599;45912;-67
2023/06/30 01:56:14;;;;;;;;;9.50;8.25;;;;;23.49;75.88;100930.22;146638;661;44021;-69
2023/06/30 02:00:03;;;;;;;;;11.00;11.00;;;;;22.50;75.92;100758.94;146637;565;44915;-68
2023/06/30 02:04:10;;;;;;;;;;;;;;;;;;;;;
2023/06/30 02:07:50;;;;;;;;;;;;;;;;;;;;;
2023/06/30 02:11:02;;;;;;;;;11.75;10.75;;;;;23.59;76.57;100939.06;146639;602;44021;-71
2023/06/30 02:14:18;;;;;;;;;11.50;11.50;;;;;22.81;75.51;100796.91;146637;610;45914;-71
2023/06/30 02:17:56;;;;;;;;;11.00;11.00;;;;;22.65;74.48;100754.56;146633;564;44021;-71
2023/06/30 02:21:52;;;;;;;;;10.75;10.50;;;;;21.89;73.24;100627.53;146635;730;45912;-70
2023/06/30 02:25:03;;;;;;;;;10.67;9.67;;;;;23.73;75.83;100939.97;146639;628;44021;-70
2023/06/30 02:28:50;;;;;;;;;10.00;9.67;;;;;22.65;73.38;100757.22;146639;609;45914;-69
2023/06/30 02:32:52;;;;;;;;;10.00;9.75;;;;;22.52;73.51;100743.09;146638;572;44021;-69
2023/06/30 02:39:50;;;;;;;;;10.33;9.33;;;;;21.83;74.37;100637.19;146640;632;44021;-69
2023/06/30 02:59:32;;;;;;;;;13.00;10.00;;;;;21.56;74.36;100612.47;146622;592;45915;-67
2023/06/30 03:03:10;;;;;;;;;9.50;9.50;;;;;23.64;75.68;100952.28;146618;716;45021;-68
2023/06/30 03:06:25;;;;;;;;;10.00;8.75;;;;;23.66;75.82;100962.00;146623;593;45917;-68
2023/06/30 03:10:10;;;;;;;;;;;;;;;;;;;;;
2023/06/30 03:13:55;;;;;;;;;11.25;9.50;;;;;21.76;74.04;100628.38;146613;576;46016;-70
2023/06/30 03:17:39;;;;;;;;;;;;;;;;;;;;;
2023/06/30 03:21:22;;;;;;;;;;;;;;;;;;;;;
2023/06/30 03:25:04;;;;;;;;;9.00;9.00;;;;;22.35;73.50;100737.75;146627;564;45021;-68
2023/06/30 03:29:02;;;;;;;;;10.00;10.00;;;;;21.51;73.73;100590.47;146624;617;45915;-68
2023/06/30 03:33:05;;;;;;;;;8.50;8.50;;;;;21.65;73.18;100619.53;146612;564;45021;-68
2023/06/30 03:37:05;;;;;;;;;;;;;;;;;;;;;
2023/06/30 03:41:04;;;;;;;;;11.67;10.00;;;;;23.67;73.38;100957.59;146625;597;45022;-69
2023/06/30 03:44:58;;;;;;;;;9.33;9.00;;;;;23.67;73.48;100953.16;146618;575;45913;-68
2023/06/30 03:48:28;;;;;;;;;10.00;9.00;;;;;23.66;73.65;100956.69;146625;573;46008;-70
2023/06/30 03:52:19;;;;;;;;;;;;;;;;;;;;;
2023/06/30 03:56:06;;;;;;;;;;;;;;;;;;;;;
2023/06/30 03:59:57;;;;;;;;;;;;;;;;;;;;;
2023/06/30 04:07:39;;;;;;;;;;;;;;;;;;;;;
2023/06/30 04:11:18;;;;;;;;;;;;;;;;;;;;;
2023/06/30 04:19:13;;;;;;;;;;;;;;;;;;;;;
2023/06/30 04:22:55;;;;;;;;;7.67;6.67;;;;;24.00;73.88;100982.37;146624;580;45913;-70
2023/06/30 04:26:36;;;;;;;;;8.67;8.00;;;;;24.18;73.00;100972.66;146628;684;45022;-70
2023/06/30 04:30:30;;;;;;;;;10.33;9.00;;;;;22.22;72.14;100623.28;146622;569;45909;-70
2023/06/30 04:34:34;;;;;;;;;9.00;9.00;;;;;23.38;71.47;100794.34;146628;593;45022;-70
2023/06/30 04:38:29;;;;;;;;;8.00;7.67;;;;;24.47;70.71;100974.41;146622;581;45913;-67
2023/06/30 04:42:02;;;;;;;;;8.67;8.67;;;;;24.53;70.88;100973.53;146627;563;45022;-69
2023/06/30 04:45:22;;;;;;;;;9.00;8.33;;;;;22.64;70.89;100633.87;146622;569;45913;-68
2023/06/30 04:48:55;;;;;;;;;9.00;9.00;;;;;23.36;70.85;100739.66;146615;625;48008;-67
2023/06/30 04:56:32;;;;;;;;;9.33;8.33;;;;;23.36;68.80;100698.22;146642;595;44020;-68
2023/06/30 05:04:12;;;;;;;;;9.00;9.00;;;;;25.62;68.65;100987.22;146639;627;46020;-71
2023/06/30 05:08:16;;;;;;;;;10.00;8.67;;;;;24.02;66.13;100670.69;146639;620;44915;-70
2023/06/30 05:12:04;;;;;;;;;;;;;;;;;;;;;
2023/06/30 05:15:16;;;;;;;;;;;;;;;;;;;;;
2023/06/30 05:18:45;;;;;;;;;11.00;11.00;;;;;26.39;64.47;100997.28;146641;690;44020;-71
2023/06/30 05:22:40;;;;;;;;;10.00;10.00;;;;;25.48;64.02;100813.84;146638;606;45915;-71
2023/06/30 05:26:12;;;;;;;;;9.00;9.00;;;;;26.66;63.78;100993.47;146634;633;44020;-70
2023/06/30 05:29:35;;;;;;;;;8.33;8.33;;;;;26.77;63.45;100988.06;146639;630;44915;-70
2023/06/30 05:33:05;;;;;;;;;;;;;;;;;;;;;
2023/06/30 05:36:40;;;;;;;;;9.33;8.00;;;;;26.76;62.95;100994.25;146641;619;44917;-70
2023/06/30 05:40:29;;;;;;;;;10.00;8.33;;;;;24.89;62.72;100683.41;146641;631;44020;-71
2023/06/30 05:43:40;;;;;;;;;9.33;9.00;;;;;26.55;63.17;100996.25;146635;655;44915;-68
2023/06/30 05:47:16;;;;;;;;;10.00;9.67;;;;;26.39;64.20;100995.50;146640;615;44020;-69
2023/06/30 05:51:13;;;;;;;;;;;;;;;;;;;;;
2023/06/30 05:55:16;;;;;;;;;8.67;7.00;;;;;24.45;64.14;100634.25;146632;622;45012;-69
2023/06/30 05:58:55;;;;;;;;;9.67;9.33;;;;;24.36;63.03;100578.63;146622;569;45915;-68
2023/06/30 06:02:37;;;;;;;;;10.67;9.67;;;;;26.98;62.93;100994.88;146615;608;45021;-68
2023/06/30 06:06:01;;;;;;;;;9.00;9.00;;;;;27.22;62.12;101001.72;146623;594;47010;-69
2023/06/30 06:13:18;;;;;;;;;;;;;;;;;;;;;
2023/06/30 06:16:49;;;;;;;;;9.00;8.33;;;;;27.11;61.66;100999.19;146627;613;45023;-68
2023/06/30 06:20:40;;;;;;;;;12.67;11.00;;;;;25.31;61.54;100702.53;146625;630;45915;-67
2023/06/30 06:23:59;;;;;;;;;10.67;8.67;;;;;26.98;61.55;100992.22;146619;563;45020;-68
2023/06/30 06:27:51;;;;;;;;;;;;;;;;;;;;;
2023/06/30 06:31:44;;;;;;;;;9.00;8.00;;;;;25.27;62.80;100733.53;146625;600;45022;-69
2023/06/30 06:35:12;;;;;;;;;6.67;6.33;;;;;25.01;62.64;100690.38;146625;604;45913;-69
2023/06/30 06:38:55;;;;;;;;;7.00;7.00;;;;;25.61;62.64;100798.69;146618;612;45020;-68
2023/06/30 06:42:52;;;;;;;;;7.33;7.33;;;;;24.96;63.02;100695.75;146624;604;45913;-69
2023/06/30 06:50:16;;;;;;;;;;;;;;;;;;;;;
2023/06/30 06:54:29;;;;;;;;;9.33;9.00;;;;;25.59;62.60;100764.19;146624;676;47020;-67
2023/06/30 06:58:04;;;;;;;;;8.67;7.67;;;;;27.24;62.84;101002.59;146624;592;45913;-67
2023/06/30 07:05:25;;;;;;;;;7.33;6.33;;;;;25.55;60.83;100658.94;146624;582;45915;-67
2023/06/30 07:13:25;;;;;;;;;9.00;9.00;;;;;28.04;59.67;101007.66;146617;626;45017;-69
2023/06/30 07:16:53;;;;;;;;;4.00;3.67;;;;;28.29;57.80;101005.47;146619;582;45020;-68
2023/06/30 07:20:56;;;;;;;;;10.33;9.67;;;;;26.60;58.20;100703.66;146622;617;45915;-69
2023/06/30 07:24:40;;;;;;;;;;;;;;;;;;;;;
2023/06/30 07:28:47;;;;;;;;;;;;;;;;;;;;;
2023/06/30 07:36:34;;;;;;;;;;;;;;;;;;;;;
2023/06/30 07:44:20;;;;;;;;;7.67;6.67;;;;;27.05;56.49;100719.81;146621;637;45914;-68
2023/06/30 07:48:11;;;;;;;;;;;;;;;;;;;;;
2023/06/30 07:51:35;;;;;;;;;6.67;6.67;;;;;28.96;54.78;101006.00;146622;570;45909;-69
2023/06/30 08:03:21;;;;;;;;;7.67;6.33;;;;;27.27;55.86;100729.22;146629;636;45020;-66
2023/06/30 08:07:00;;;;;;;;;9.33;8.33;;;;;28.96;54.04;101008.66;146622;574;45915;-67
2023/06/30 08:10:35;;;;;;;;;8.00;8.00;;;;;29.04;54.38;101014.78;146629;630;45020;-68
2023/06/30 08:13:53;;;;;;;;;8.67;7.67;;;;;29.09;54.67;101020.00;146622;668;45913;-67
2023/06/30 08:18:05;;;;;;;;;;;;;;;;;;;;;
2023/06/30 08:22:06;;;;;;;;;;;;;;;;;;;;;
2023/06/30 08:25:37;;;;;;;;;7.00;7.00;;;;;27.13;55.28;100728.53;146625;664;47008;-67
2023/06/30 08:33:36;;;;;;;;;8.67;7.67;;;;;26.97;52.42;100711.94;146619;570;45020;-67
2023/06/30 08:37:16;;;;;;;;;9.00;7.67;;;;;26.58;55.27;100673.56;146622;571;45912;-67
2023/06/30 08:40:58;;;;;;;;;7.33;7.33;;;;;28.33;54.14;101005.38;146626;569;45020;-68
2023/06/30 08:48:31;;;;;;;;;8.33;8.33;;;;;28.00;57.02;101009.47;146626;565;45020;-68
2023/06/30 08:52:40;;;;;;;;;12.00;8.33;;;;;26.45;58.08;100694.13;146622;576;45914;-67
2023/06/30 08:56:15;;;;;;;;;;;;;;;;;;;;;
2023/06/30 08:59:32;;;;;;;;;9.33;9.33;;;;;28.72;55.30;100988.66;146630;583;45014;-67
2023/06/30 09:03:03;;;;;;;;;;;;;;;;;;;;;
2023/06/30 09:06:35;;;;;;;;;;;;;;;;;;;;;
2023/06/30 09:10:19;;;;;;;;;7.00;7.00;;;;;28.70;52.11;100878.44;146633;667;45014;-66
2023/06/30 09:14:02;;;;;;;;;;;;;;;;;;;;;
2023/06/30 09:17:55;;;;;;;;;;;;;;;;;;;;;
2023/06/30 09:25:36;;;;;;;;;5.75;5.75;;;;;29.58;53.56;100979.75;146634;588;45020;-67
2023/06/30 09:29:16;;;;;;;;;5.25;4.75;;;;;29.69;53.82;100979.53;146633;569;45014;-67
2023/06/30 09:33:15;;;;;;;;;10.00;10.00;;;;;29.68;53.14;100972.41;146634;685;45014;-68
2023/06/30 09:36:38;;;;;;;;;8.25;7.50;;;;;29.67;52.68;100970.66;146632;671;45014;-68
2023/06/30 09:48:43;;;;;;;;;;;;;;;;;;;;;
2023/06/30 09:52:13;;;;;;;;;10.00;9.50;;;;;29.52;54.45;100947.81;146627;575;45014;-69
2023/06/30 09:56:16;;;;;;;;;8.33;7.00;;;;;28.05;54.18;100686.88;146635;584;45046;-69
2023/06/30 09:59:36;;;;;;;;;8.67;8.67;;;;;29.72;53.93;100951.84;146630;593;46915;-69
2023/06/30 10:03:49;;;;;;;;;;;;;;;;;;;;;
2023/06/30 10:07:35;;;;;;;;;;;;;;;;;;;;;
2023/06/30 10:11:08;;;;;;;;;6.33;6.33;;;;;29.82;53.25;100940.03;146638;578;45013;-69
2023/06/30 10:15:02;;;;;;;;;8.33;7.67;;;;;28.87;53.39;100763.31;146636;610;45014;-68
2023/06/30 10:18:21;;;;;;;;;8.00;8.00;;;;;29.86;52.97;100928.31;146635;581;46020;-69
2023/06/30 10:22:30;;;;;;;;;6.67;6.67;;;;;28.97;52.90;100760.38;146633;626;45014;-69
2023/06/30 10:26:28;;;;;;;;;8.00;8.00;;;;;28.94;53.75;100755.13;146634;666;45014;-68
2023/06/30 10:30:28;;;;;;;;;8.25;8.25;;;;;30.01;53.02;100919.91;146632;595;45014;-70
2023/06/30 10:34:02;;;;;;;;;7.33;7.33;;;;;30.01;53.36;100919.91;146638;564;45015;-70
2023/06/30 10:37:42;;;;;;;;;;;;;;;;;;;;;
2023/06/30 10:41:20;;;;;;;;;8.67;7.33;;;;;30.02;53.39;100900.25;146633;608;45015;-69
2023/06/30 10:57:55;;;;;;;;;6.67;6.33;;;;;28.74;52.83;100664.00;146641;574;45013;-69
2023/06/30 11:01:55;;;;;;;;;;;;;;;;;;;;;
2023/06/30 11:05:28;;;;;;;;;6.33;5.33;;;;;30.17;52.39;100866.03;146636;576;45020;-70
2023/06/30 11:08:56;;;;;;;;;4.00;4.00;;;;;30.22;52.57;100869.47;146630;585;45014;-70
2023/06/30 11:12:23;;;;;;;;;5.67;5.67;;;;;30.23;52.22;100861.41;146640;582;45018;-69
2023/06/30 11:16:07;;;;;;;;;6.33;6.00;;;;;29.34;52.77;100699.84;146634;681;45014;-70
2023/06/30 11:20:03;;;;;;;;;;;;;;;;;;;;;
2023/06/30 11:28:04;;;;;;;;;10.00;6.33;;;;;28.59;52.76;100581.66;146637;579;45014;-69
2023/06/30 11:31:18;;;;;;;;;;;;;;;;;;;;;
2023/06/30 11:38:59;;;;;;;;;8.00;6.00;;;;;29.20;52.22;100687.75;146635;573;45014;-71
2023/06/30 11:42:18;;;;;;;;;9.00;8.00;;;;;30.13;51.96;100839.38;146633;599;45012;-70
2023/06/30 11:50:37;;;;;;;;;;;;;;;;;;;;;
2023/06/30 11:54:30;;;;;;;;;8.00;6.67;;;;;30.16;53.12;100817.00;146631;610;45018;-69
2023/06/30 11:58:34;;;;;;;;;6.00;6.00;;;;;30.14;52.93;100805.47;146633;578;45012;-69
2023/06/30 12:02:22;;;;;;;;;;;;;;;;;;;;;
2023/06/30 12:06:08;;;;;;;;;6.00;6.00;;;;;28.84;52.90;100573.91;146632;571;45014;-69
2023/06/30 12:17:30;;;;;;;;;;;;;;;;;;;;;
2023/06/30 12:21:14;;;;;;;;;7.00;7.00;;;;;28.69;53.02;100492.47;146638;563;45012;-70
2023/06/30 12:25:07;;;;;;;;;;;;;;;;;;;;;
2023/06/30 12:29:09;;;;;;;;;;;;;;;;;;;;;
2023/06/30 12:33:01;;;;;;;;;8.00;5.00;;;;;30.07;52.47;100767.34;146629;609;45914;-69
2023/06/30 12:36:27;;;;;;;;;;;;;;;;;;;;;
2023/06/30 12:45:03;;;;;;;;;8.33;8.33;;;;;28.30;53.02;100480.13;146637;563;45014;-69
2023/06/30 12:49:05;;;;;;;;;6.25;6.25;;;;;28.27;52.89;100466.84;146630;602;45014;-69
2023/06/30 12:53:10;;;;;;;;;;;;;;;;;;;;;
2023/06/30 12:57:15;;;;;;;;;;;;;;;;;;;;;
2023/06/30 13:01:09;;;;;;;;;;;;;;;;;;;;;
2023/06/30 13:05:04;;;;;;;;;5.67;5.67;;;;;29.91;52.92;100742.84;146652;619;44914;-69
2023/06/30 13:09:06;;;;;;;;;;;;;;;;;;;;;
2023/06/30 13:12:49;;;;;;;;;;;;;;;;;;;;;
2023/06/30 13:16:21;;;;;;;;;;;;;;;;;;;;;
2023/06/30 13:20:07;;;;;;;;;8.00;8.00;;;;;29.23;51.06;100571.97;146652;581;44914;-69
2023/06/30 13:24:13;;;;;;;;;;;;;;;;;;;;;
2023/06/30 13:27:44;;;;;;;;;7.00;6.33;;;;;30.03;49.18;100714.87;146652;595;44914;-68
2023/06/30 13:31:29;;;;;;;;;5.33;5.00;;;;;29.03;50.36;100545.81;146661;566;44020;-69
2023/06/30 13:39:02;;;;;;;;;7.00;6.00;;;;;29.86;50.82;100719.81;146655;644;44020;-67
2023/06/30 13:42:18;;;;;;;;;7.00;6.00;;;;;29.76;50.88;100713.00;146656;582;44914;-68
2023/06/30 13:53:43;;;;;;;;;;;;;;;;;;;;;
2023/06/30 13:57:40;;;;;;;;;;;;;;;;;;;;;
2023/06/30 14:01:59;;;;;;;;;6.67;5.33;;;;;27.79;50.66;100501.81;146657;572;44020;-71
2023/06/30 14:05:33;;;;;;;;;5.00;5.00;;;;;28.33;52.72;100624.03;146655;565;44917;-72
2023/06/30 14:10:03;;;;;;;;;;;;;;;;;;;;;
2023/06/30 14:13:41;;;;;;;;;;;;;;;;;;;;;
2023/06/30 14:17:06;;;;;;;;;7.67;6.00;;;;;29.06;53.36;100670.31;146661;570;44020;-70
2023/06/30 14:21:33;;;;;;;;;;;;;;;;;;;;;
2023/06/30 14:25:04;;;;;;;;;6.67;6.67;;;;;29.21;53.70;100669.94;146656;587;44022;-68
2023/06/30 14:29:19;;;;;;;;;9.00;7.00;;;;;29.09;53.77;100665.78;146652;674;44918;-71
2023/06/30 14:32:39;;;;;;;;;6.33;6.00;;;;;29.17;53.61;100663.78;146662;682;44021;-69
2023/06/30 14:40:29;;;;;;;;;7.00;6.67;;;;;29.11;53.43;100663.09;146663;592;44021;-69
2023/06/30 14:44:15;;;;;;;;;5.67;5.33;;;;;27.79;53.98;100451.19;146652;611;44911;-70
2023/06/30 14:47:48;;;;;;;;;;;;;;;;;;;;;
2023/06/30 14:55:38;;;;;;;;;7.00;7.00;;;;;27.58;53.68;100435.69;146638;566;45014;-69
2023/06/30 14:59:26;;;;;;;;;6.67;6.00;;;;;27.62;54.53;100487.97;146631;646;45014;-67
2023/06/30 15:02:43;;;;;;;;;6.67;6.67;;;;;28.61;54.96;100665.22;146636;566;45014;-66
2023/06/30 15:07:09;;;;;;;;;;;;;;;;;;;;;
2023/06/30 15:11:09;;;;;;;;;;;;;;;;;;;;;
2023/06/30 15:15:09;;;;;;;;;;;;;;;;;;;;;
2023/06/30 15:19:15;;;;;;;;;;;;;;;;;;;;;
2023/06/30 15:22:59;;;;;;;;;7.00;7.00;;;;;27.72;56.82;100632.47;146632;576;45014;-69
2023/06/30 15:26:05;;;;;;;;;6.50;6.25;;;;;27.72;57.30;100620.03;146636;636;45014;-68
2023/06/30 15:29:27;;;;;;;;;6.67;6.67;;;;;27.60;57.29;100618.53;146635;609;46012;-69
2023/06/30 15:33:03;;;;;;;;;8.00;8.00;;;;;27.66;56.52;100608.62;146628;624;45014;-69
2023/06/30 15:37:02;;;;;;;;;7.00;6.00;;;;;26.84;57.58;100441.69;146635;563;45014;-67
2023/06/30 15:41:09;;;;;;;;;;;;;;;;;;;;;
2023/06/30 15:45:14;;;;;;;;;8.00;6.67;;;;;26.71;55.77;100425.09;146629;600;45015;-68
2023/06/30 15:48:54;;;;;;;;;6.33;5.00;;;;;27.78;56.46;100595.06;146632;581;45012;-67
2023/06/30 15:52:27;;;;;;;;;7.67;7.67;;;;;26.52;56.23;100358.13;146637;601;45015;-67
2023/06/30 15:56:02;;;;;;;;;7.33;6.67;;;;;27.13;55.74;100426.00;146633;636;45014;-67
2023/06/30 16:00:10;;;;;;;;;8.00;7.67;;;;;27.13;53.44;100431.34;146636;575;45015;-69
2023/06/30 16:04:14;;;;;;;;;;;;;;;;;;;;;
2023/06/30 16:07:59;;;;;;;;;7.00;6.67;;;;;27.86;53.78;100586.00;146634;582;45917;-69
2023/06/30 16:11:23;;;;;;;;;8.00;7.00;;;;;27.87;53.94;100586.88;146634;605;45014;-68
2023/06/30 16:15:20;;;;;;;;;;;;;;;;;;;;;
2023/06/30 16:19:07;;;;;;;;;7.00;6.00;;;;;26.08;52.76;100316.44;146637;635;45014;-67
2023/06/30 16:22:41;;;;;;;;;5.67;5.00;;;;;27.38;53.57;100553.28;146632;579;45014;-66
2023/06/30 16:26:20;;;;;;;;;6.33;5.00;;;;;27.49;52.57;100601.88;146638;595;45022;-66
2023/06/30 16:29:50;;;;;;;;;5.67;5.67;;;;;27.47;53.15;100593.03;146635;569;45014;-68
2023/06/30 16:33:27;;;;;;;;;7.67;6.67;;;;;27.39;52.22;100597.66;146637;586;45014;-69
2023/06/30 16:36:54;;;;;;;;;6.33;6.33;;;;;27.36;52.29;100595.91;146629;573;45015;-68
2023/06/30 16:41:12;;;;;;;;;;;;;;;;;;;;;
2023/06/30 16:45:27;;;;;;;;;8.33;7.00;;;;;27.46;50.81;100598.41;146634;569;45014;-67
2023/06/30 16:49:32;;;;;;;;;8.33;7.00;;;;;25.62;51.58;100277.41;146638;592;45014;-68
2023/06/30 16:53:11;;;;;;;;;5.00;5.00;;;;;27.48;50.26;100594.81;146631;658;45014;-69
2023/06/30 16:57:15;;;;;;;;;6.67;5.67;;;;;26.55;51.03;100423.66;146642;655;44020;-69
2023/06/30 17:00:59;;;;;;;;;9.00;8.00;;;;;27.40;50.96;100586.09;146640;569;44917;-69
2023/06/30 17:04:30;;;;;;;;;8.00;8.00;;;;;27.24;51.85;100556.22;146642;569;44020;-70
2023/06/30 17:08:07;;;;;;;;;;;;;;;;;;;;;
2023/06/30 17:11:29;;;;;;;;;;;;;;;;;;;;;
2023/06/30 17:15:15;;;;;;;;;8.67;7.67;;;;;27.47;51.80;100570.84;146640;564;44912;-72
2023/06/30 17:18:50;;;;;;;;;6.00;6.00;;;;;27.39;51.68;100560.38;146642;565;44020;-71
2023/06/30 17:23:09;;;;;;;;;8.00;6.33;;;;;27.46;52.17;100585.97;146639;587;45919;-70
2023/06/30 17:26:37;;;;;;;;;5.00;5.00;;;;;26.46;51.37;100419.34;146641;651;44020;-75
2023/06/30 17:30:11;;;;;;;;;8.00;6.67;;;;;27.35;52.29;100577.28;146641;612;44916;-71
2023/06/30 17:33:59;;;;;;;;;8.67;7.67;;;;;27.29;52.62;100580.09;146643;580;44020;-70
2023/06/30 17:38:06;;;;;;;;;6.33;6.33;;;;;25.77;52.68;100341.72;146638;566;45013;-68
2023/06/30 17:45:32;;;;;;;;;5.00;5.00;;;;;26.91;53.17;100584.31;146640;582;44913;-70
2023/06/30 17:49:33;;;;;;;;;8.33;6.33;;;;;26.79;53.71;100580.13;146642;579;44020;-69
2023/06/30 17:53:14;;;;;;;;;7.67;6.67;;;;;25.72;54.47;100436.53;146641;571;44916;-69
2023/06/30 17:57:01;;;;;;;;;5.00;5.00;;;;;25.00;54.44;100330.53;146642;574;44020;-69
2023/06/30 18:00:51;;;;;;;;;3.67;3.67;;;;;25.41;55.24;100403.37;146639;644;44915;-69
2023/06/30 18:04:26;;;;;;;;;;;;;;;;;;;;;
2023/06/30 18:08:26;;;;;;;;;5.33;5.00;;;;;26.19;54.32;100566.91;146640;579;44913;-69
2023/06/30 18:11:35;;;;;;;;;5.67;4.00;;;;;26.07;53.99;100577.72;146637;627;45010;-69
2023/06/30 18:15:15;;;;;;;;;1.33;1.00;;;;;25.94;54.89;100575.22;146636;580;44917;-69
2023/06/30 18:18:37;;;;;;;;;7.00;5.33;;;;;24.13;52.54;100272.41;146640;593;44020;-69
2023/06/30 18:22:32;;;;;;;;;;;;;;;;;;;;;
2023/06/30 18:30:14;;;;;;;;;3.67;3.67;;;;;24.09;54.20;100273.34;146639;565;44914;-71
2023/06/30 18:33:44;;;;;;;;;6.00;5.00;;;;;25.85;53.33;100582.44;146641;601;44020;-70
2023/06/30 18:37:10;;;;;;;;;;;;;;;;;;;;;
2023/06/30 18:41:04;;;;;;;;;7.67;7.00;;;;;25.92;53.56;100587.66;146642;671;44020;-69
2023/06/30 18:44:40;;;;;;;;;4.00;4.00;;;;;24.90;53.79;100412.00;146641;609;44912;-70
2023/06/30 18:48:08;;;;;;;;;7.00;7.00;;;;;24.97;53.88;100411.03;146640;650;45010;-69
2023/06/30 18:52:13;;;;;;;;;;;;;;;;;;;;;
2023/06/30 18:56:06;;;;;;;;;8.33;6.00;;;;;25.13;53.69;100427.66;146635;569;45014;-69
2023/06/30 18:59:48;;;;;;;;;6.00;6.00;;;;;24.37;51.67;100292.44;146635;598;45014;-69
2023/06/30 19:03:47;;;;;;;;;8.00;7.00;;;;;24.38;51.82;100311.84;146639;573;45014;-68
2023/06/30 19:07:26;;;;;;;;;6.00;5.67;;;;;25.15;51.97;100454.16;146632;582;45014;-69
2023/06/30 19:10:48;;;;;;;;;4.33;4.33;;;;;25.76;52.37;100555.09;146636;598;45014;-69
2023/06/30 19:14:19;;;;;;;;;5.00;5.00;;;;;26.19;51.85;100612.06;146636;588;45014;-70
2023/06/30 19:17:58;;;;;;;;;5.67;5.00;;;;;26.21;51.14;100616.47;146639;571;45012;-70
2023/06/30 19:21:22;;;;;;;;;6.00;6.00;;;;;26.16;51.84;100605.00;146630;593;45014;-69
2023/06/30 19:24:51;;;;;;;;;;;;;;;;;;;;;
2023/06/30 19:32:08;;;;;;;;;3.33;3.33;;;;;26.00;52.05;100611.47;146633;564;45014;-69
2023/06/30 19:39:23;;;;;;;;;6.33;6.00;;;;;25.98;53.21;100614.16;146638;586;45014;-69
2023/06/30 19:42:43;;;;;;;;;6.00;6.00;;;;;25.96;53.78;100617.72;146631;601;45915;-70
2023/06/30 19:46:08;;;;;;;;;9.00;8.67;;;;;25.89;53.66;100614.28;146638;605;45014;-70
2023/06/30 19:49:30;;;;;;;;;7.67;5.67;;;;;25.88;53.91;100622.25;146636;587;45015;-70
2023/06/30 19:53:26;;;;;;;;;;;;;;;;;;;;;
2023/06/30 19:57:10;;;;;;;;;7.00;7.00;;;;;25.73;54.92;100625.94;146628;569;45017;-70
2023/06/30 20:00:29;;;;;;;;;9.67;9.67;;;;;25.67;55.28;100628.69;146633;579;45014;-69
2023/06/30 20:12:50;;;;;;;;;;;;;;;;;;;;;
2023/06/30 20:16:36;;;;;;;;;;;;;;;;;;;;;
2023/06/30 20:24:51;;;;;;;;;;;;;;;;;;;;;
2023/06/30 20:28:29;;;;;;;;;;;;;;;;;;;;;
2023/06/30 20:32:40;;;;;;;;;8.33;6.67;;;;;23.90;56.99;100385.66;146635;637;45014;-70
2023/06/30 20:36:26;;;;;;;;;8.33;8.00;;;;;23.41;56.99;100302.19;146627;564;46016;-70
2023/06/30 20:40:15;;;;;;;;;;;;;;;;;;;;;
2023/06/30 20:43:59;;;;;;;;;10.00;9.00;;;;;23.38;57.42;100299.56;146634;627;45014;-69
2023/06/30 20:47:57;;;;;;;;;8.67;8.67;;;;;24.13;57.31;100438.41;146635;631;45015;-69
2023/06/30 20:51:56;;;;;;;;;;;;;;;;;;;;;
2023/06/30 20:55:39;;;;;;;;;11.33;9.67;;;;;23.54;57.65;100373.56;146631;608;45015;-69
2023/06/30 20:59:28;;;;;;;;;;;;;;;;;;;;;
2023/06/30 21:02:45;;;;;;;;;9.75;9.00;;;;;24.96;58.76;100628.56;146635;604;45015;-69
2023/06/30 21:06:41;;;;;;;;;;;;;;;;;;;;;
2023/06/30 21:10:49;;;;;;;;;11.00;11.00;;;;;23.56;57.67;100375.31;146632;578;45015;-69
2023/06/30 21:14:26;;;;;;;;;12.00;10.50;;;;;24.96;58.16;100616.16;146631;615;45014;-69
2023/06/30 21:18:12;;;;;;;;;;;;;;;;;;;;;
2023/06/30 21:22:01;;;;;;;;;;;;;;;;;;;;;
2023/06/30 21:25:53;;;;;;;;;12.25;10.25;;;;;24.00;57.27;100442.94;146637;639;45015;-70
2023/06/30 21:29:23;;;;;;;;;;;;;;;;;;;;;
2023/06/30 21:32:48;;;;;;;;;8.00;7.67;;;;;25.02;57.69;100604.62;146637;569;45015;-70
2023/06/30 21:36:27;;;;;;;;;10.50;9.25;;;;;25.01;58.18;100601.06;146632;686;45014;-69
2023/06/30 21:40:24;;;;;;;;;9.67;9.00;;;;;24.99;57.79;100609.97;146637;696;46015;-70
2023/06/30 21:43:54;;;;;;;;;;;;;;;;;;;;;
2023/06/30 21:48:09;;;;;;;;;;;;;;;;;;;;;
2023/06/30 21:55:24;;;;;;;;;11.67;10.33;;;;;24.96;57.83;100592.28;146632;564;45021;-70
2023/06/30 21:58:54;;;;;;;;;;;;;;;;;;;;;
2023/06/30 22:03:11;;;;;;;;;13.00;12.75;;;;;22.96;57.90;100280.50;146633;709;45015;-69
2023/06/30 22:10:38;;;;;;;;;9.67;9.00;;;;;24.57;58.34;100590.88;146638;657;45015;-69
2023/06/30 22:13:59;;;;;;;;;;;;;;;;;;;;;
2023/06/30 22:17:59;;;;;;;;;11.50;10.00;;;;;24.51;58.84;100573.25;146634;666;45015;-70
2023/06/30 22:21:41;;;;;;;;;;;;;;;;;;;;;
2023/06/30 22:25:11;;;;;;;;;9.00;9.00;;;;;24.47;59.09;100571.53;146629;626;45015;-67
2023/06/30 22:28:48;;;;;;;;;;;;;;;;;;;;;
2023/06/30 22:32:21;;;;;;;;;12.00;8.00;;;;;24.27;59.11;100576.94;146637;579;45015;-67
2023/06/30 22:36:19;;;;;;;;;;;;;;;;;;;;;
2023/06/30 22:44:39;;;;;;;;;12.67;12.00;;;;;22.86;59.01;100344.84;146632;654;45014;-71
2023/06/30 22:51:58;;;;;;;;;;;;;;;;;;;;;
2023/06/30 22:55:26;;;;;;;;;;;;;;;;;;;;;
2023/06/30 22:59:22;;;;;;;;;11.33;8.00;;;;;24.04;59.21;100573.56;146628;621;45014;-68
2023/06/30 23:02:45;;;;;;;;;10.00;10.00;;;;;22.16;59.07;100263.22;146635;594;45014;-71
2023/06/30 23:06:56;;;;;;;;;8.00;8.00;;;;;22.88;59.35;100387.13;146632;604;45014;-68
2023/06/30 23:10:43;;;;;;;;;;;;;;;;;;;;;
2023/06/30 23:14:23;;;;;;;;;;;;;;;;;;;;;
2023/06/30 23:18:34;;;;;;;;;;;;;;;;;;;;;
2023/06/30 23:26:54;;;;;;;;;;;;;;;;;;;;;
2023/06/30 23:34:50;;;;;;;;;;;;;;;;;;;;;
2023/06/30 23:39:02;;;;;;;;;12.75;11.75;;;;;23.76;59.02;100546.38;146632;590;45014;-72
2023/06/30 23:43:06;;;;;;;;;;;;;;;;;;;;;
2023/06/30 23:55:01;;;;;;;;;9.33;9.00;;;;;21.79;58.83;100205.25;146636;588;45015;-68
2023/06/30 23:58:21;;;;;;;;;13.25;11.50;;;;;23.76;59.16;100552.53;146635;571;45014;-67
